createdAt,value
2022-11-05T00:02:03.431Z,101348.28
2022-11-05T00:04:50.424Z,101350.03
2022-11-05T00:07:44.032Z,101362.19
2022-11-05T00:10:29.247Z,101358.75
2022-11-05T00:13:18.147Z,101355.31
2022-11-05T00:16:05.447Z,101366.66
2022-11-05T00:18:33.765Z,101356.13
2022-11-05T00:21:02.143Z,101357.88
2022-11-05T00:23:49.027Z,101363.97
2022-11-05T00:26:17.301Z,101364.81
2022-11-05T00:28:45.611Z,101361.31
2022-11-05T00:31:14.495Z,101369.97
2022-11-05T00:33:43.408Z,101370.78
2022-11-05T00:36:12.991Z,101365.56
2022-11-05T00:38:43.427Z,101369.03
2022-11-05T00:41:11.885Z,101363.75
2022-11-05T00:43:58.682Z,101367.13
2022-11-05T00:46:27.150Z,101370.56
2022-11-05T00:49:14.035Z,101369.59
2022-11-05T00:51:45.715Z,101375.63
2022-11-05T00:54:14.060Z,101377.31
2022-11-05T00:56:42.347Z,101371.16
2022-11-05T00:59:10.656Z,101367.69
2022-11-05T01:01:39.050Z,101368.56
2022-11-05T01:04:07.446Z,101363.31
2022-11-05T01:06:35.876Z,101368.53
2022-11-05T01:09:04.355Z,101364.13
2022-11-05T01:11:37.370Z,101371.94
2022-11-05T01:14:10.037Z,101375.41
2022-11-05T01:16:39.598Z,101369.25
2022-11-05T01:19:10.597Z,101377.97
2022-11-05T01:21:39.425Z,101376.22
2022-11-05T01:24:10.773Z,101378.72
2022-11-05T01:26:39.055Z,101383.84
2022-11-05T01:29:07.378Z,101379.47
2022-11-05T01:31:36.240Z,101381.16
2022-11-05T01:34:04.677Z,101381.97
2022-11-05T01:36:33.032Z,101391.50
2022-11-05T01:39:02.003Z,101390.63
2022-11-05T01:41:30.661Z,101388.00
2022-11-05T01:44:00.167Z,101384.53
2022-11-05T01:46:36.745Z,101395.84
2022-11-05T01:49:18.348Z,101393.16
2022-11-05T01:51:47.099Z,101387.88
2022-11-05T01:54:21.204Z,101381.78
2022-11-05T01:56:55.370Z,101389.63
2022-11-05T01:59:30.210Z,101384.38
2022-11-05T02:02:01.802Z,101381.78
2022-11-05T02:04:41.108Z,101379.22
2022-11-05T02:07:11.138Z,101385.28
2022-11-05T02:09:55.743Z,101390.50
2022-11-05T02:12:28.985Z,101382.72
2022-11-05T02:14:58.959Z,101379.16
2022-11-05T02:17:42.585Z,101386.09
2022-11-05T02:20:32.816Z,101381.78
2022-11-05T02:23:28.730Z,101380.91
2022-11-05T02:26:03.001Z,101389.69
2022-11-05T02:28:58.256Z,101394.00
2022-11-05T02:31:47.662Z,101391.38
2022-11-05T02:34:40.316Z,101386.16
2022-11-05T02:37:39.146Z,101392.22
2022-11-05T02:40:17.748Z,101388.69
2022-11-05T02:42:58.646Z,101382.53
2022-11-05T02:45:41.333Z,101380.72
2022-11-05T02:48:30.127Z,101383.28
2022-11-05T02:51:04.518Z,101385.03
2022-11-05T02:53:59.660Z,101386.78
2022-11-05T02:56:32.683Z,101386.78
2022-11-05T02:59:01.083Z,101385.13
2022-11-05T03:01:29.681Z,101382.59
2022-11-05T03:04:03.157Z,101382.66
2022-11-05T03:06:56.844Z,101380.16
2022-11-05T03:09:25.154Z,101391.50
2022-11-05T03:12:17.924Z,101389.75
2022-11-05T03:15:23.900Z,101390.63
2022-11-05T03:18:23.056Z,101383.66
2022-11-05T03:21:07.730Z,101384.47
2022-11-05T03:24:08.314Z,101382.72
2022-11-05T03:26:49.048Z,101374.81
2022-11-05T03:29:25.556Z,101375.63
2022-11-05T03:31:56.884Z,101375.63
2022-11-05T03:34:35.429Z,101379.09
2022-11-05T03:37:06.352Z,101386.91
2022-11-05T03:39:45.531Z,101382.53
2022-11-05T03:42:18.552Z,101397.28
2022-11-05T03:44:52.802Z,101389.38
2022-11-05T03:47:35.805Z,101392.00
2022-11-05T03:50:13.156Z,101395.44
2022-11-05T03:52:59.561Z,101397.09
2022-11-05T03:55:35.561Z,101393.56
2022-11-05T03:58:05.996Z,101401.41
2022-11-05T04:00:36.028Z,101396.06
2022-11-05T04:03:04.386Z,101395.19
2022-11-05T04:05:33.162Z,101401.22
2022-11-05T04:08:20.320Z,101389.06
2022-11-05T04:11:07.285Z,101396.91
2022-11-05T04:13:35.964Z,101402.19
2022-11-05T04:16:22.906Z,101401.34
2022-11-05T04:18:51.363Z,101399.59
2022-11-05T04:21:38.670Z,101412.72
2022-11-05T04:24:10.303Z,101411.06
2022-11-05T04:26:40.948Z,101412.84
2022-11-05T04:29:28.490Z,101411.13
2022-11-05T04:31:57.397Z,101418.16
2022-11-05T04:34:25.899Z,101407.75
2022-11-05T04:36:54.250Z,101408.69
2022-11-05T04:39:22.604Z,101401.75
2022-11-05T04:41:51.154Z,101405.25
2022-11-05T04:44:19.475Z,101401.75
2022-11-05T04:46:47.752Z,101406.06
2022-11-05T04:49:16.042Z,101404.31
2022-11-05T04:51:44.312Z,101410.41
2022-11-05T04:54:12.670Z,101404.25
2022-11-05T04:56:42.068Z,101412.09
2022-11-05T04:59:10.707Z,101412.94
2022-11-05T05:01:39.195Z,101401.59
2022-11-05T05:04:07.680Z,101418.16
2022-11-05T05:06:38.402Z,101413.84
2022-11-05T05:09:07.105Z,101416.44
2022-11-05T05:11:35.483Z,101412.03
2022-11-05T05:14:03.928Z,101419.00
2022-11-05T05:16:32.247Z,101413.78
2022-11-05T05:19:01.082Z,101419.94
2022-11-05T05:21:42.600Z,101411.28
2022-11-05T05:24:13.708Z,101416.53
2022-11-05T05:26:45.087Z,101420.06
2022-11-05T05:29:13.973Z,101423.56
2022-11-05T05:31:43.053Z,101428.78
2022-11-05T05:34:13.434Z,101419.19
2022-11-05T05:36:41.899Z,101425.38
2022-11-05T05:39:11.104Z,101423.66
2022-11-05T05:41:40.133Z,101427.25
2022-11-05T05:44:08.444Z,101432.53
2022-11-05T05:46:36.789Z,101435.25
2022-11-05T05:49:09.535Z,101442.34
2022-11-05T05:51:41.166Z,101427.53
2022-11-05T05:54:10.975Z,101437.31
2022-11-05T05:56:39.449Z,101436.56
2022-11-05T05:59:07.751Z,101435.78
2022-11-05T06:01:42.583Z,101448.00
2022-11-05T06:04:14.570Z,101443.72
2022-11-05T06:06:46.801Z,101445.50
2022-11-05T06:09:15.539Z,101453.34
2022-11-05T06:11:43.890Z,101444.69
2022-11-05T06:14:13.446Z,101447.28
2022-11-05T06:16:41.763Z,101436.84
2022-11-05T06:19:10.239Z,101443.78
2022-11-05T06:21:39.207Z,101449.88
2022-11-05T06:24:07.991Z,101455.88
2022-11-05T06:26:42.629Z,101452.31
2022-11-05T06:29:11.147Z,101453.22
2022-11-05T06:31:39.500Z,101448.75
2022-11-05T06:34:08.513Z,101451.31
2022-11-05T06:36:36.798Z,101450.34
2022-11-05T06:39:11.193Z,101451.13
2022-11-05T06:42:03.931Z,101461.47
2022-11-05T06:44:28.158Z,101456.22
2022-11-05T06:46:56.725Z,101457.06
2022-11-05T06:49:28.073Z,101464.91
2022-11-05T06:51:57.892Z,101463.97
2022-11-05T06:54:26.819Z,101465.75
2022-11-05T06:56:55.155Z,101476.22
2022-11-05T06:59:23.477Z,101481.44
2022-11-05T07:01:51.945Z,101477.16
2022-11-05T07:04:20.406Z,101470.25
2022-11-05T07:06:48.690Z,101483.31
2022-11-05T07:09:17.108Z,101482.47
2022-11-05T07:11:45.485Z,101485.06
2022-11-05T07:14:13.931Z,101486.88
2022-11-05T07:16:42.217Z,101495.53
2022-11-05T07:19:10.664Z,101485.13
2022-11-05T07:21:41.706Z,101483.41
2022-11-05T07:24:14.423Z,101486.06
2022-11-05T07:26:42.820Z,101481.72
2022-11-05T07:29:11.179Z,101485.31
2022-11-05T07:31:39.461Z,101476.66
2022-11-05T07:34:08.192Z,101485.50
2022-11-05T07:36:39.361Z,101479.41
2022-11-05T07:39:07.861Z,101479.56
2022-11-05T07:41:36.194Z,101482.25
2022-11-05T07:44:05.038Z,101488.50
2022-11-05T07:46:33.675Z,101485.91
2022-11-05T07:49:02.431Z,101493.00
2022-11-05T07:51:30.792Z,101486.19
2022-11-05T07:53:59.279Z,101488.13
2022-11-05T07:56:28.223Z,101481.25
2022-11-05T07:59:00.718Z,101497.16
2022-11-05T08:01:29.395Z,101497.38
2022-11-05T08:03:58.327Z,101494.94
2022-11-05T08:06:29.536Z,101495.97
2022-11-05T08:08:59.962Z,101506.66
2022-11-05T08:11:35.857Z,101507.78
2022-11-05T08:14:05.565Z,101514.09
2022-11-05T08:16:34.161Z,101504.69
2022-11-05T08:19:02.467Z,101499.75
2022-11-05T08:21:30.909Z,101508.78
2022-11-05T08:23:59.239Z,101508.06
2022-11-05T08:26:27.575Z,101513.41
2022-11-05T08:28:55.924Z,101505.66
2022-11-05T08:31:27.926Z,101515.41
2022-11-05T08:34:02.277Z,101512.03
2022-11-05T08:36:35.836Z,101520.16
2022-11-05T08:39:04.388Z,101509.78
2022-11-05T08:41:32.951Z,101513.44
2022-11-05T08:44:01.867Z,101503.09
2022-11-05T08:46:31.937Z,101500.47
2022-11-05T08:49:00.379Z,101510.03
2022-11-05T08:51:28.953Z,101505.75
2022-11-05T08:53:58.940Z,101506.78
2022-11-05T08:56:27.672Z,101515.69
2022-11-05T08:58:56.109Z,101510.66
2022-11-05T09:01:24.542Z,101516.22
2022-11-05T09:03:53.105Z,101502.50
2022-11-05T09:06:21.622Z,101508.88
2022-11-05T09:08:50.365Z,101502.88
2022-11-05T09:11:18.679Z,101505.53
2022-11-05T09:13:47.258Z,101503.06
2022-11-05T09:16:25.335Z,101496.19
2022-11-05T09:18:54.317Z,101493.69
2022-11-05T09:21:23.319Z,101496.44
2022-11-05T09:23:51.840Z,101500.88
2022-11-05T09:26:20.387Z,101497.31
2022-11-05T09:28:48.732Z,101497.31
2022-11-05T09:31:17.257Z,101502.59
2022-11-05T09:33:45.968Z,101506.06
2022-11-05T09:36:14.324Z,101497.41
2022-11-05T09:38:43.063Z,101497.66
2022-11-05T09:41:21.001Z,101499.72
2022-11-05T09:43:53.498Z,101493.00
2022-11-05T09:46:28.245Z,101495.94
2022-11-05T09:49:06.750Z,101504.97
2022-11-05T09:51:39.731Z,101499.91
2022-11-05T09:54:11.986Z,101505.41
2022-11-05T09:56:42.134Z,101503.84
2022-11-05T09:59:24.908Z,101497.88
2022-11-05T10:02:12.496Z,101504.16
2022-11-05T10:04:45.036Z,101510.41
2022-11-05T10:07:18.207Z,101516.72
2022-11-05T10:09:51.535Z,101516.00
2022-11-05T10:12:46.672Z,101516.13
2022-11-05T10:15:37.288Z,101512.66
2022-11-05T10:18:32.848Z,101515.34
2022-11-05T10:21:05.814Z,101524.03
2022-11-05T10:23:34.561Z,101528.34
2022-11-05T10:26:07.852Z,101534.53
2022-11-05T10:28:36.548Z,101531.16
2022-11-05T10:31:12.594Z,101530.34
2022-11-05T10:34:06.155Z,101532.22
2022-11-05T10:36:37.148Z,101530.59
2022-11-05T10:39:17.803Z,101532.47
2022-11-05T10:42:00.849Z,101532.63
2022-11-05T10:44:32.311Z,101538.94
2022-11-05T10:47:38.372Z,101533.88
2022-11-05T10:50:18.395Z,101538.41
2022-11-05T10:53:02.001Z,101526.25
2022-11-05T10:55:35.580Z,101529.91
2022-11-05T10:58:10.290Z,101529.22
2022-11-05T11:00:39.731Z,101531.06
2022-11-05T11:03:44.438Z,101524.97
2022-11-05T11:06:27.580Z,101517.19
2022-11-05T11:08:57.982Z,101522.56
2022-11-05T11:11:34.659Z,101523.56
2022-11-05T11:14:19.852Z,101528.84
2022-11-05T11:16:57.821Z,101523.56
2022-11-05T11:19:35.149Z,101526.25
2022-11-05T11:22:03.534Z,101524.50
2022-11-05T11:24:37.846Z,101526.28
2022-11-05T11:27:33.394Z,101527.22
2022-11-05T11:30:05.037Z,101523.72
2022-11-05T11:32:37.668Z,101521.97
2022-11-05T11:35:08.630Z,101528.13
2022-11-05T11:37:42.913Z,101520.25
2022-11-05T11:40:21.129Z,101519.38
2022-11-05T11:42:55.676Z,101518.53
2022-11-05T11:45:27.956Z,101518.50
2022-11-05T11:47:58.002Z,101520.19
2022-11-05T11:50:39.453Z,101524.59
2022-11-05T11:53:20.625Z,101515.88
2022-11-05T11:55:55.078Z,101522.09
2022-11-05T11:58:35.511Z,101521.28
2022-11-05T12:01:37.289Z,101517.78
2022-11-05T12:04:13.517Z,101513.44
2022-11-05T12:07:13.264Z,101518.84
2022-11-05T12:09:47.551Z,101520.63
2022-11-05T12:12:22.314Z,101519.72
2022-11-05T12:15:15.551Z,101512.63
2022-11-05T12:17:53.243Z,101512.59
2022-11-05T12:20:42.974Z,101519.66
2022-11-05T12:23:39.929Z,101516.13
2022-11-05T12:26:52.145Z,101517.00
2022-11-05T12:30:08.160Z,101509.03
2022-11-05T12:32:58.509Z,101506.38
2022-11-05T12:35:27.142Z,101505.44
2022-11-05T12:38:09.616Z,101516.00
2022-11-05T12:40:56.149Z,101511.53
2022-11-05T12:43:35.356Z,101514.16
2022-11-05T12:46:38.293Z,101523.81
2022-11-05T12:49:16.339Z,101511.38
2022-11-05T12:52:09.461Z,101517.50
2022-11-05T12:55:03.351Z,101513.91
2022-11-05T12:57:35.955Z,101522.66
2022-11-05T13:00:24.431Z,101515.53
2022-11-05T13:03:07.323Z,101518.97
2022-11-05T13:06:01.581Z,101522.44
2022-11-05T13:08:44.283Z,101522.38
2022-11-05T13:11:54.810Z,101524.06
2022-11-05T13:14:41.503Z,101522.25
2022-11-05T13:17:23.511Z,101516.94
2022-11-05T13:20:17.307Z,101515.97
2022-11-05T13:22:51.004Z,101514.13
2022-11-05T13:25:29.008Z,101512.31
2022-11-05T13:28:12.647Z,101525.44
2022-11-05T13:30:46.623Z,101522.72
2022-11-05T13:33:19.679Z,101514.75
2022-11-05T13:36:34.899Z,101530.47
2022-11-05T13:39:10.426Z,101528.69
2022-11-05T13:42:01.235Z,101520.56
2022-11-05T13:44:48.640Z,101516.88
2022-11-05T13:47:32.286Z,101510.56
2022-11-05T13:50:19.004Z,101517.47
2022-11-05T13:53:26.045Z,101515.66
2022-11-05T13:56:16.160Z,101512.16
2022-11-05T13:59:12.610Z,101513.03
2022-11-05T14:01:54.187Z,101510.41
2022-11-05T14:04:32.023Z,101513.06
2022-11-05T14:07:18.192Z,101509.59
2022-11-05T14:09:53.506Z,101507.03
2022-11-05T14:12:39.044Z,101507.09
2022-11-05T14:15:23.553Z,101498.34
2022-11-05T14:18:06.170Z,101495.72
2022-11-05T14:20:34.490Z,101493.09
2022-11-05T14:23:22.448Z,101491.34
2022-11-05T14:26:17.870Z,101484.28
2022-11-05T14:28:50.190Z,101479.03
2022-11-05T14:31:19.437Z,101481.63
2022-11-05T14:34:09.772Z,101490.38
2022-11-05T14:36:40.396Z,101482.50
2022-11-05T14:39:28.011Z,101479.91
2022-11-05T14:42:15.913Z,101486.06
2022-11-05T14:45:02.956Z,101488.75
2022-11-05T14:47:43.017Z,101488.72
2022-11-05T14:50:35.568Z,101479.09
2022-11-05T14:53:12.974Z,101470.31
2022-11-05T14:55:43.598Z,101472.97
2022-11-05T14:58:26.093Z,101470.28
2022-11-05T15:00:56.544Z,101471.22
2022-11-05T15:03:50.677Z,101466.81
2022-11-05T15:06:20.561Z,101465.03
2022-11-05T15:08:48.880Z,101462.41
2022-11-05T15:11:35.637Z,101477.31
2022-11-05T15:14:26.360Z,101478.16
2022-11-05T15:16:58.817Z,101481.66
2022-11-05T15:19:33.927Z,101484.22
2022-11-05T15:22:06.592Z,101483.25
2022-11-05T15:24:35.577Z,101487.59
2022-11-05T15:27:22.809Z,101482.31
2022-11-05T15:29:51.259Z,101488.38
2022-11-05T15:32:25.734Z,101483.97
2022-11-05T15:34:56.159Z,101483.94
2022-11-05T15:37:26.892Z,101489.16
2022-11-05T15:39:55.850Z,101491.75
2022-11-05T15:42:26.672Z,101490.84
2022-11-05T15:44:57.474Z,101483.88
2022-11-05T15:47:27.012Z,101497.03
2022-11-05T15:50:01.381Z,101491.78
2022-11-05T15:52:42.346Z,101493.50
2022-11-05T15:55:12.009Z,101494.34
2022-11-05T15:57:51.515Z,101499.59
2022-11-05T16:00:23.194Z,101498.72
2022-11-05T16:02:57.226Z,101494.31
2022-11-05T16:05:30.674Z,101512.75
2022-11-05T16:08:04.487Z,101500.47
2022-11-05T16:10:38.080Z,101502.16
2022-11-05T16:13:29.060Z,101501.25
2022-11-05T16:16:00.654Z,101492.41
2022-11-05T16:18:40.546Z,101496.78
2022-11-05T16:21:08.914Z,101488.84
2022-11-05T16:23:41.441Z,101497.53
2022-11-05T16:29:39.361Z,101484.19
2022-11-05T16:32:25.425Z,101486.72
2022-11-05T16:35:01.555Z,101491.97
2022-11-05T16:37:36.862Z,101491.91
2022-11-05T16:40:15.690Z,101483.91
2022-11-05T16:42:48.305Z,101472.47
2022-11-05T16:45:18.945Z,101472.41
2022-11-05T16:47:48.542Z,101459.22
2022-11-05T16:50:26.142Z,101459.16
2022-11-05T16:52:54.695Z,101460.81
2022-11-05T16:55:23.727Z,101474.81
2022-11-05T16:57:54.955Z,101469.56
2022-11-05T17:00:25.482Z,101470.38
2022-11-05T17:02:54.162Z,101465.06
2022-11-05T17:05:24.534Z,101472.91
2022-11-05T17:07:53.438Z,101468.47
2022-11-05T17:10:23.348Z,101476.34
2022-11-05T17:12:52.495Z,101479.81
2022-11-05T17:15:25.232Z,101482.38
2022-11-05T17:17:54.966Z,101481.47
2022-11-05T17:20:40.477Z,101473.56
2022-11-05T17:23:15.814Z,101467.41
2022-11-05T17:25:48.908Z,101462.16
2022-11-05T17:28:18.338Z,101451.63
2022-11-05T17:30:52.298Z,101455.94
2022-11-05T17:33:23.572Z,101462.03
2022-11-05T17:35:52.480Z,101466.47
2022-11-05T17:38:22.623Z,101466.41
2022-11-05T17:40:51.828Z,101467.22
2022-11-05T17:43:20.527Z,101464.59
2022-11-05T17:45:51.938Z,101474.22
2022-11-05T17:48:20.965Z,101474.19
2022-11-05T17:50:50.753Z,101479.44
2022-11-05T17:53:19.612Z,101477.69
2022-11-05T17:55:48.344Z,101461.00
2022-11-05T17:58:17.358Z,101474.13
2022-11-05T18:00:47.980Z,101467.97
2022-11-05T18:03:16.946Z,101468.78
2022-11-05T18:05:45.362Z,101470.53
2022-11-05T18:08:13.788Z,101477.50
2022-11-05T18:10:42.552Z,101477.50
2022-11-05T18:13:11.634Z,101476.59
2022-11-05T18:15:41.234Z,101474.75
2022-11-05T18:18:10.256Z,101471.28
2022-11-05T18:20:38.831Z,101474.75
2022-11-05T18:23:07.685Z,101470.41
2022-11-05T18:25:36.285Z,101463.44
2022-11-05T18:28:04.732Z,101464.31
2022-11-05T18:30:33.863Z,101458.19
2022-11-05T18:33:04.203Z,101459.06
2022-11-05T18:35:32.578Z,101455.56
2022-11-05T18:38:00.959Z,101456.44
2022-11-05T18:40:29.607Z,101456.44
2022-11-05T18:42:58.101Z,101456.47
2022-11-05T18:45:29.717Z,101456.47
2022-11-05T18:48:00.382Z,101454.72
2022-11-05T18:50:29.420Z,101441.59
2022-11-05T18:53:00.420Z,101452.09
2022-11-05T18:55:28.965Z,101437.22
2022-11-05T18:57:57.398Z,101443.38
2022-11-05T19:00:25.729Z,101454.81
2022-11-05T19:02:54.461Z,101455.69
2022-11-05T19:05:31.145Z,101448.66
2022-11-05T19:07:59.474Z,101446.09
2022-11-05T19:10:29.377Z,101448.75
2022-11-05T19:12:58.910Z,101454.00
2022-11-05T19:15:27.381Z,101442.66
2022-11-05T19:17:58.778Z,101436.53
2022-11-05T19:20:28.091Z,101427.75
2022-11-05T19:22:56.512Z,101428.66
2022-11-05T19:25:25.152Z,101420.78
2022-11-05T19:27:58.045Z,101412.03
2022-11-05T19:30:26.430Z,101418.19
2022-11-05T19:32:54.705Z,101411.19
2022-11-05T19:35:27.208Z,101412.06
2022-11-05T19:37:56.282Z,101405.06
2022-11-05T19:40:27.288Z,101413.81
2022-11-05T19:42:55.814Z,101411.19
2022-11-05T19:45:43.688Z,101413.81
2022-11-05T19:48:16.263Z,101410.31
2022-11-05T19:50:47.811Z,101414.66
2022-11-05T19:53:16.981Z,101411.19
2022-11-05T19:55:45.409Z,101408.53
2022-11-05T19:58:14.131Z,101404.13
2022-11-05T20:00:43.049Z,101398.88
2022-11-05T20:03:12.421Z,101410.31
2022-11-05T20:05:40.913Z,101410.31
2022-11-05T20:08:09.429Z,101409.44
2022-11-05T20:10:38.176Z,101400.66
2022-11-05T20:13:11.441Z,101401.56
2022-11-05T20:15:46.317Z,101404.22
2022-11-05T20:18:16.320Z,101408.59
2022-11-05T20:20:45.354Z,101402.47
2022-11-05T20:23:15.345Z,101414.72
2022-11-05T20:25:43.724Z,101409.47
2022-11-05T20:28:12.322Z,101410.34
2022-11-05T20:30:40.791Z,101404.19
2022-11-05T20:33:10.281Z,101405.94
2022-11-05T20:35:39.490Z,101401.56
2022-11-05T20:38:08.438Z,101410.31
2022-11-05T20:40:39.742Z,101407.72
2022-11-05T20:43:08.441Z,101402.44
2022-11-05T20:45:38.241Z,101397.19
2022-11-05T20:48:06.611Z,101391.94
2022-11-05T20:50:35.233Z,101388.44
2022-11-05T20:53:03.521Z,101391.97
2022-11-05T20:55:46.481Z,101381.50
2022-11-05T20:58:17.792Z,101385.91
2022-11-05T21:00:51.445Z,101377.16
2022-11-05T21:03:21.203Z,101377.16
2022-11-05T21:05:54.544Z,101364.03
2022-11-05T21:08:24.011Z,101373.69
2022-11-05T21:10:52.552Z,101363.16
2022-11-05T21:13:21.688Z,101355.28
2022-11-05T21:15:52.527Z,101365.78
2022-11-05T21:18:23.562Z,101363.16
2022-11-05T21:20:53.165Z,101362.25
2022-11-05T21:23:21.903Z,101360.50
2022-11-05T21:25:50.225Z,101377.16
2022-11-05T21:28:18.632Z,101359.63
2022-11-05T21:30:49.047Z,101374.53
2022-11-05T21:33:18.948Z,101357.00
2022-11-05T21:35:51.481Z,101363.13
2022-11-05T21:38:20.013Z,101353.53
2022-11-05T21:40:49.220Z,101351.78
2022-11-05T21:43:18.039Z,101348.31
2022-11-05T21:45:46.575Z,101348.31
2022-11-05T21:48:15.541Z,101342.16
2022-11-05T21:51:02.751Z,101342.25
2022-11-05T21:53:49.828Z,101335.22
2022-11-05T21:56:42.880Z,101334.38
2022-11-05T21:59:32.855Z,101325.63
2022-11-05T22:02:02.185Z,101333.50
2022-11-05T22:04:34.770Z,101328.25
2022-11-05T22:07:04.483Z,101322.16
2022-11-05T22:09:32.993Z,101323.88
2022-11-05T22:12:03.021Z,101324.75
2022-11-05T22:14:31.704Z,101319.53
2022-11-05T22:17:00.117Z,101309.00
2022-11-05T22:19:28.599Z,101308.16
2022-11-05T22:21:57.249Z,101304.69
2022-11-05T22:24:28.197Z,101298.50
2022-11-05T22:26:56.766Z,101306.44
2022-11-05T22:29:25.556Z,101295.94
2022-11-05T22:31:54.141Z,101291.56
2022-11-05T22:34:23.486Z,101294.22
2022-11-05T22:36:52.864Z,101293.38
2022-11-05T22:39:21.992Z,101293.38
2022-11-05T22:41:54.036Z,101286.41
2022-11-05T22:44:24.076Z,101289.03
2022-11-05T22:46:53.707Z,101289.94
2022-11-05T22:49:22.347Z,101291.69
2022-11-05T22:51:51.604Z,101286.44
2022-11-05T22:54:20.318Z,101289.97
2022-11-05T22:56:50.742Z,101275.06
2022-11-05T22:59:19.388Z,101269.81
2022-11-05T23:01:49.630Z,101266.28
2022-11-05T23:04:18.918Z,101264.56
2022-11-05T23:07:06.727Z,101262.78
2022-11-05T23:09:55.621Z,101259.28
2022-11-05T23:12:30.488Z,101260.16
2022-11-05T23:15:00.629Z,101260.16
2022-11-05T23:17:47.957Z,101254.91
2022-11-05T23:20:41.343Z,101251.41
2022-11-05T23:23:29.428Z,101249.63
2022-11-05T23:26:00.316Z,101248.75
2022-11-05T23:28:28.703Z,101254.06
2022-11-05T23:31:15.670Z,101243.53
2022-11-05T23:33:43.992Z,101241.81
2022-11-05T23:36:31.547Z,101236.56
2022-11-05T23:39:00.413Z,101230.44
2022-11-05T23:41:47.232Z,101233.09
2022-11-05T23:44:34.233Z,101227.84
2022-11-05T23:47:21.139Z,101216.47
2022-11-05T23:49:49.442Z,101218.22
2022-11-05T23:52:18.464Z,101220.00
2022-11-05T23:54:47.255Z,101236.66
2022-11-05T23:57:15.650Z,101225.25
2022-11-05T23:59:44.246Z,101226.13
